Epworth, Illinois
Current Conditions -  °F | °C
As of 4:55 PM on Tuesday 21 Oct 2014 (Local Time) from KCUL Reporting Station
Scattered Clouds Scattered Clouds  
Wind Chill: 64°   Ceiling: Unl
Heat Index: 64°   Visibility: 10mi
Dew Point: 45°   Wind: 9mph
Humidity: 49%   Direction: 10°N
Pressure: 30.1"   Gusts: NA
Location:  38.0491°N, 88.1124°W
Report Text: KCUL 212155Z AUTO 01008KT 10SM SCT050 18/07 A3010 RMK AO2 T01800070
Loading
Personal Weather Stations






























Interactive Weather Map
Tropical Storm Tracking
New forecast layout! Learn more

10-Day Weather Forecast

Advertisements
Track Severe Weather on mobile